METAR Data
IDs: Format: Raw Decoded Include TAF

Data at: 1344 UTC 07 Jul 2020

KMKL 071253Z 00000KT 10SM CLR 25/22 A3001 RMK AO2 SLP158 T02500217
KMKL 071153Z 00000KT 9SM CLR 22/21 A3000 RMK AO2 SLP153 T02220206 10239 20206 53011
KMKL 071053Z AUTO 00000KT 8SM CLR 21/19 A2998 RMK AO2 SLP148 T02110194
KMKL 070953Z AUTO 00000KT 9SM CLR 21/20 A2997 RMK AO2 SLP144 T02110200
KMKL 070853Z AUTO 00000KT 10SM CLR 22/20 A2997 RMK AO2 SLP142 T02170200 55004
KMKL 070753Z AUTO 00000KT 10SM CLR 22/21 A2996 RMK AO2 SLP140 T02220206
KMKL 070653Z AUTO 00000KT 10SM CLR 23/21 A2997 RMK AO2 SLP143 T02280206
KMKL 070553Z AUTO 11003KT 10SM CLR 23/21 A2998 RMK AO2 SLP146 T02330211 10311 20233 403280222 50002
KMKL 070453Z AUTO 11003KT 10SM CLR 24/21 A3000 RMK AO2 SLP152 T02390211
KMKL 070353Z AUTO 00000KT 10SM CLR 24/22 A2998 RMK AO2 SLP147 T02440217
KMKL 070253Z AUTO 00000KT 10SM FEW090 26/22 A2997 RMK AO2 SLP144 T02610217 53010
KMKL 070153Z AUTO 10006KT 10SM CLR 26/23 A2996 RMK AO2 SLP139 T02610233
KMKL 070053Z AUTO 12003KT 10SM CLR 28/22 A2995 RMK AO2 LTG DSNT E SLP138 T02830217
KMKL 062353Z AUTO 00000KT 10SM CLR 31/23 A2994 RMK AO2 SLP134 T03110228 10328 20300 55003
KMKL 062253Z 11003KT 10SM CLR 32/21 A2993 RMK AO2 SLP131 T03170211
KMKL 062153Z 12004KT 10SM CLR 32/21 A2994 RMK AO2 SLP134 T03220206
KMKL 062053Z 17004KT 10SM CLR 32/22 A2995 RMK AO2 SLP137 T03220217 56015
KMKL 061953Z VRB03KT 10SM CLR 32/21 A2997 RMK AO2 SLP142 T03220206
KMKL 061853Z 07004KT 10SM CLR 31/23 A2998 RMK AO2 SLP147 T03110228
KMKL 061753Z 15003KT 10SM CLR 30/22 A3000 RMK AO2 SLP152 T03000217 10306 20228 57005
KMKL 061653Z VRB04KT 10SM CLR 30/22 A3000 RMK AO2 SLP154 T03000217
KMKL 061553Z VRB04KT 10SM CLR 29/21 A3000 RMK AO2 SLP154 T02890211
KMKL 061453Z 09004KT 10SM CLR 26/21 A3001 RMK AO2 SLP157 T02610211 50008
KMKL 061353Z 11004KT 10SM CLR 25/21 A3001 RMK AO2 SLP158 T02500211
KMKL 061253Z 00000KT 10SM CLR 23/21 A3000 RMK AO2 SLP154 T02330206
KMKL 061153Z 10004KT 10SM CLR 23/21 A2999 RMK AO2 SLP148 T02280206 10233 20222 51014
KMKL 061053Z AUTO 11003KT 10SM CLR 22/21 A2998 RMK AO2 SLP146 T02220206
KMKL 060953Z AUTO 00000KT 10SM CLR 22/21 A2996 RMK AO2 SLP139 T02220206
KMKL 060853Z AUTO 00000KT 10SM CLR 22/21 A2994 RMK AO2 SLP135 T02220206 53005
KMKL 060753Z AUTO 12004KT 10SM CLR 22/21 A2994 RMK AO2 SLP132 T02220211
KMKL 060653Z AUTO 12005KT 10SM CLR 23/21 A2992 RMK AO2 SLP127 T02280211
KMKL 060553Z AUTO 00000KT 10SM CLR 23/22 A2993 RMK AO2 SLP130 T02330217 10289 20233 403390194 58006
KMKL 060453Z AUTO 00000KT 10SM CLR 24/21 A2995 RMK AO2 SLP135 T02440211
KMKL 060353Z AUTO 16004KT 10SM CLR 24/22 A2994 RMK AO2 SLP133 T02440222
KMKL 060253Z AUTO 00000KT 10SM FEW033 26/23 A2995 RMK AO2 SLP136 T02610233 51017
KMKL 060153Z AUTO 14003KT 10SM FEW047 BKN090 BKN120 27/23 A2994 RMK AO2 SLP133 T02670233